sensor_id;sensor_type;location;lat;lon;timestamp;pressure;altitude;pressure_sealevel;temperature;humidity
27980;BME280;15315;50.836;4.430;2023-04-09T00:11:03;101962.03;;;12.96;74.42
27980;BME280;15315;50.836;4.430;2023-04-09T00:21:03;101954.59;;;12.70;74.97
27980;BME280;15315;50.836;4.430;2023-04-09T00:31:04;101949.63;;;12.47;75.62
27980;BME280;15315;50.836;4.430;2023-04-09T00:41:05;101947.47;;;12.38;76.18
27980;BME280;15315;50.836;4.430;2023-04-09T00:51:06;101932.66;;;12.29;76.18
27980;BME280;15315;50.836;4.430;2023-04-09T01:01:07;101920.66;;;12.49;75.52
27980;BME280;15315;50.836;4.430;2023-04-09T01:21:25;101916.94;;;12.20;76.01
27980;BME280;15315;50.836;4.430;2023-04-09T01:31:31;101926.91;;;12.19;75.80
27980;BME280;15315;50.836;4.430;2023-04-09T01:41:33;101928.56;;;12.06;76.49
27980;BME280;15315;50.836;4.430;2023-04-09T01:51:35;101919.31;;;11.95;76.35
27980;BME280;15315;50.836;4.430;2023-04-09T02:01:46;101921.06;;;11.96;76.34
27980;BME280;15315;50.836;4.430;2023-04-09T02:11:49;101921.66;;;11.85;76.28
27980;BME280;15315;50.836;4.430;2023-04-09T02:21:50;101914.94;;;11.92;75.82
27980;BME280;15315;50.836;4.430;2023-04-09T02:31:50;101922.69;;;11.67;76.79
27980;BME280;15315;50.836;4.430;2023-04-09T02:41:52;101897.31;;;11.54;77.53
27980;BME280;15315;50.836;4.430;2023-04-09T02:51:52;101897.16;;;11.57;77.22
27980;BME280;15315;50.836;4.430;2023-04-09T03:01:53;101891.47;;;11.46;78.00
27980;BME280;15315;50.836;4.430;2023-04-09T03:11:53;101880.88;;;11.74;77.00
27980;BME280;15315;50.836;4.430;2023-04-09T03:21:55;101878.19;;;11.58;77.09
27980;BME280;15315;50.836;4.430;2023-04-09T03:31:55;101880.03;;;11.41;77.31
27980;BME280;15315;50.836;4.430;2023-04-09T03:41:59;101866.47;;;11.42;76.42
27980;BME280;15315;50.836;4.430;2023-04-09T03:52:04;101863.00;;;11.23;76.91
27980;BME280;15315;50.836;4.430;2023-04-09T04:02:05;101858.84;;;11.33;77.23
27980;BME280;15315;50.836;4.430;2023-04-09T04:12:05;101853.81;;;10.94;78.53
27980;BME280;15315;50.836;4.430;2023-04-09T04:22:05;101851.56;;;11.02;78.36
27980;BME280;15315;50.836;4.430;2023-04-09T04:32:06;101852.88;;;11.11;78.39
27980;BME280;15315;50.836;4.430;2023-04-09T04:42:06;101851.91;;;10.96;78.44
27980;BME280;15315;50.836;4.430;2023-04-09T04:52:07;101857.63;;;10.90;78.57
27980;BME280;15315;50.836;4.430;2023-04-09T05:02:07;101856.69;;;10.74;79.56
27980;BME280;15315;50.836;4.430;2023-04-09T05:12:08;101863.25;;;10.86;79.41
27980;BME280;15315;50.836;4.430;2023-04-09T05:22:08;101863.00;;;10.90;78.86
27980;BME280;15315;50.836;4.430;2023-04-09T05:32:08;101860.50;;;10.70;80.02
27980;BME280;15315;50.836;4.430;2023-04-09T05:42:09;101870.03;;;10.60;82.46
27980;BME280;15315;50.836;4.430;2023-04-09T05:52:09;101863.16;;;10.87;82.10
27980;BME280;15315;50.836;4.430;2023-04-09T06:02:10;101868.25;;;11.26;80.86
27980;BME280;15315;50.836;4.430;2023-04-09T06:12:10;101876.91;;;11.33;81.81
27980;BME280;15315;50.836;4.430;2023-04-09T06:22:10;101874.06;;;11.51;82.92
27980;BME280;15315;50.836;4.430;2023-04-09T06:32:11;101869.13;;;11.91;83.67
27980;BME280;15315;50.836;4.430;2023-04-09T06:42:11;101876.16;;;12.09;83.38
27980;BME280;15315;50.836;4.430;2023-04-09T06:52:12;101883.47;;;12.22;84.89
27980;BME280;15315;50.836;4.430;2023-04-09T07:02:12;101882.47;;;12.39;85.83
27980;BME280;15315;50.836;4.430;2023-04-09T07:12:12;101884.25;;;12.70;84.52
27980;BME280;15315;50.836;4.430;2023-04-09T07:22:13;101870.09;;;13.09;83.35
27980;BME280;15315;50.836;4.430;2023-04-09T07:32:13;101874.53;;;13.10;81.37
27980;BME280;15315;50.836;4.430;2023-04-09T07:42:15;101883.19;;;12.86;81.50
27980;BME280;15315;50.836;4.430;2023-04-09T07:52:15;101886.03;;;13.27;79.65
27980;BME280;15315;50.836;4.430;2023-04-09T08:02:15;101874.72;;;13.49;78.96
27980;BME280;15315;50.836;4.430;2023-04-09T08:12:16;101884.47;;;13.80;77.05
27980;BME280;15315;50.836;4.430;2023-04-09T08:22:17;101872.69;;;14.34;75.01
27980;BME280;15315;50.836;4.430;2023-04-09T08:32:17;101870.44;;;14.14;73.73
27980;BME280;15315;50.836;4.430;2023-04-09T08:42:18;101865.28;;;14.63;73.53
27980;BME280;15315;50.836;4.430;2023-04-09T08:52:30;101871.00;;;14.19;72.62
27980;BME280;15315;50.836;4.430;2023-04-09T09:02:31;101868.47;;;15.20;71.48
27980;BME280;15315;50.836;4.430;2023-04-09T09:12:39;101860.97;;;15.97;68.15
27980;BME280;15315;50.836;4.430;2023-04-09T09:22:48;101869.22;;;15.22;67.60
27980;BME280;15315;50.836;4.430;2023-04-09T09:33:10;101858.59;;;14.94;68.85
27980;BME280;15315;50.836;4.430;2023-04-09T09:43:12;101849.31;;;16.19;65.94
27980;BME280;15315;50.836;4.430;2023-04-09T09:53:13;101835.94;;;16.86;64.38
27980;BME280;15315;50.836;4.430;2023-04-09T10:03:21;101822.34;;;16.75;63.42
27980;BME280;15315;50.836;4.430;2023-04-09T10:13:26;101819.59;;;16.86;62.65
27980;BME280;15315;50.836;4.430;2023-04-09T10:23:38;101814.28;;;17.73;62.50
27980;BME280;15315;50.836;4.430;2023-04-09T10:33:42;101795.75;;;18.10;59.75
27980;BME280;15315;50.836;4.430;2023-04-09T10:43:42;101782.44;;;18.58;57.21
27980;BME280;15315;50.836;4.430;2023-04-09T10:53:46;101783.09;;;18.29;57.82
27980;BME280;15315;50.836;4.430;2023-04-09T11:04:07;101768.78;;;18.16;56.38
27980;BME280;15315;50.836;4.430;2023-04-09T11:14:08;101765.59;;;18.94;56.57
27980;BME280;15315;50.836;4.430;2023-04-09T11:24:11;101759.03;;;19.46;54.48
27980;BME280;15315;50.836;4.430;2023-04-09T11:34:11;101747.97;;;19.38;53.90
27980;BME280;15315;50.836;4.430;2023-04-09T11:44:12;101738.03;;;18.55;54.09
27980;BME280;15315;50.836;4.430;2023-04-09T11:54:13;101742.72;;;18.95;54.90
27980;BME280;15315;50.836;4.430;2023-04-09T12:04:21;101731.88;;;19.24;53.00
27980;BME280;15315;50.836;4.430;2023-04-09T12:14:21;101723.69;;;19.83;52.09
27980;BME280;15315;50.836;4.430;2023-04-09T12:24:23;101726.84;;;19.68;52.74
27980;BME280;15315;50.836;4.430;2023-04-09T12:34:24;101733.94;;;20.19;50.28
27980;BME280;15315;50.836;4.430;2023-04-09T12:44:26;101725.53;;;20.49;50.19
27980;BME280;15315;50.836;4.430;2023-04-09T12:54:26;101708.44;;;20.84;49.69
27980;BME280;15315;50.836;4.430;2023-04-09T13:04:27;101710.50;;;21.09;48.05
27980;BME280;15315;50.836;4.430;2023-04-09T13:14:27;101703.97;;;21.10;46.88
27980;BME280;15315;50.836;4.430;2023-04-09T13:24:28;101703.81;;;20.19;47.66
27980;BME280;15315;50.836;4.430;2023-04-09T13:34:28;101694.88;;;19.98;46.87
27980;BME280;15315;50.836;4.430;2023-04-09T13:44:28;101697.31;;;20.20;47.22
27980;BME280;15315;50.836;4.430;2023-04-09T13:54:29;101678.81;;;21.24;46.69
27980;BME280;15315;50.836;4.430;2023-04-09T14:04:29;101673.91;;;21.63;45.88
27980;BME280;15315;50.836;4.430;2023-04-09T14:14:30;101646.50;;;22.06;44.52
27980;BME280;15315;50.836;4.430;2023-04-09T14:24:30;101644.63;;;22.07;43.38
27980;BME280;15315;50.836;4.430;2023-04-09T14:34:30;101633.63;;;22.24;43.24
27980;BME280;15315;50.836;4.430;2023-04-09T14:44:31;101614.38;;;22.24;43.38
27980;BME280;15315;50.836;4.430;2023-04-09T14:54:32;101601.34;;;22.01;42.83
27980;BME280;15315;50.836;4.430;2023-04-09T15:04:33;101608.25;;;22.31;42.40
27980;BME280;15315;50.836;4.430;2023-04-09T15:14:33;101600.91;;;21.88;42.83
27980;BME280;15315;50.836;4.430;2023-04-09T15:24:33;101596.69;;;22.01;42.34
27980;BME280;15315;50.836;4.430;2023-04-09T15:34:34;101593.22;;;21.74;42.94
27980;BME280;15315;50.836;4.430;2023-04-09T15:44:34;101586.53;;;21.76;43.25
27980;BME280;15315;50.836;4.430;2023-04-09T15:54:35;101583.50;;;21.61;42.51
27980;BME280;15315;50.836;4.430;2023-04-09T16:04:35;101584.53;;;21.60;42.58
27980;BME280;15315;50.836;4.430;2023-04-09T16:14:36;101585.66;;;21.93;42.52
27980;BME280;15315;50.836;4.430;2023-04-09T16:24:36;101546.97;;;21.61;41.68
27980;BME280;15315;50.836;4.430;2023-04-09T16:34:36;101570.75;;;21.52;41.76
27980;BME280;15315;50.836;4.430;2023-04-09T16:44:37;101552.94;;;21.21;41.94
27980;BME280;15315;50.836;4.430;2023-04-09T16:54:39;101549.59;;;20.82;42.56
27980;BME280;15315;50.836;4.430;2023-04-09T17:04:39;101552.75;;;20.60;42.61
27980;BME280;15315;50.836;4.430;2023-04-09T17:14:39;101548.91;;;20.80;42.96
27980;BME280;15315;50.836;4.430;2023-04-09T17:24:43;101548.44;;;21.99;41.30
27980;BME280;15315;50.836;4.430;2023-04-09T17:34:47;101536.84;;;20.91;42.03
27980;BME280;15315;50.836;4.430;2023-04-09T17:44:48;101547.50;;;20.39;42.73
27980;BME280;15315;50.836;4.430;2023-04-09T17:54:48;101547.47;;;20.03;43.35
27980;BME280;15315;50.836;4.430;2023-04-09T18:04:50;101550.75;;;19.60;43.91
27980;BME280;15315;50.836;4.430;2023-04-09T18:14:50;101553.31;;;19.33;44.51
27980;BME280;15315;50.836;4.430;2023-04-09T18:24:50;101572.78;;;19.39;44.43
27980;BME280;15315;50.836;4.430;2023-04-09T18:34:51;101572.72;;;19.10;45.01
27980;BME280;15315;50.836;4.430;2023-04-09T18:44:52;101575.88;;;18.96;45.67
27980;BME280;15315;50.836;4.430;2023-04-09T18:54:52;101579.84;;;18.73;46.10
27980;BME280;15315;50.836;4.430;2023-04-09T19:04:53;101568.97;;;18.52;46.64
27980;BME280;15315;50.836;4.430;2023-04-09T19:14:54;101578.69;;;18.66;46.53
27980;BME280;15315;50.836;4.430;2023-04-09T19:24:55;101585.88;;;18.46;47.19
27980;BME280;15315;50.836;4.430;2023-04-09T19:34:55;101590.25;;;18.28;47.99
27980;BME280;15315;50.836;4.430;2023-04-09T19:44:56;101581.75;;;17.91;49.72
27980;BME280;15315;50.836;4.430;2023-04-09T19:54:56;101587.88;;;18.05;49.36
27980;BME280;15315;50.836;4.430;2023-04-09T20:04:57;101580.31;;;18.18;49.86
27980;BME280;15315;50.836;4.430;2023-04-09T20:15:00;101577.31;;;18.00;50.36
27980;BME280;15315;50.836;4.430;2023-04-09T20:25:01;101566.13;;;17.62;51.27
27980;BME280;15315;50.836;4.430;2023-04-09T20:35:01;101547.28;;;17.17;nan
27980;BME280;15315;50.836;4.430;2023-04-09T20:45:02;101544.50;;;17.28;50.52
27980;BME280;15315;50.836;4.430;2023-04-09T20:55:02;101541.31;;;17.44;50.43
27980;BME280;15315;50.836;4.430;2023-04-09T21:05:03;101538.31;;;17.26;50.24
27980;BME280;15315;50.836;4.430;2023-04-09T21:15:04;101534.94;;;17.02;50.47
27980;BME280;15315;50.836;4.430;2023-04-09T21:25:05;101548.50;;;17.24;49.90
27980;BME280;15315;50.836;4.430;2023-04-09T21:35:05;101541.47;;;17.11;51.33
27980;BME280;15315;50.836;4.430;2023-04-09T21:45:06;101536.94;;;16.89;51.53
27980;BME280;15315;50.836;4.430;2023-04-09T21:55:07;101545.91;;;16.69;52.41
27980;BME280;15315;50.836;4.430;2023-04-09T22:05:09;101540.97;;;16.52;52.32
27980;BME280;15315;50.836;4.430;2023-04-09T22:15:10;101530.22;;;16.50;52.95
27980;BME280;15315;50.836;4.430;2023-04-09T22:25:11;101551.03;;;16.51;53.61
27980;BME280;15315;50.836;4.430;2023-04-09T22:35:11;101553.50;;;16.43;53.87
27980;BME280;15315;50.836;4.430;2023-04-09T22:45:17;101547.56;;;16.38;53.86
27980;BME280;15315;50.836;4.430;2023-04-09T22:55:17;101561.38;;;16.02;54.91
27980;BME280;15315;50.836;4.430;2023-04-09T23:05:18;101570.41;;;15.91;55.55
27980;BME280;15315;50.836;4.430;2023-04-09T23:15:18;101561.28;;;16.15;55.25
27980;BME280;15315;50.836;4.430;2023-04-09T23:25:19;101530.84;;;15.98;56.46
27980;BME280;15315;50.836;4.430;2023-04-09T23:35:20;101515.28;;;16.00;56.15
27980;BME280;15315;50.836;4.430;2023-04-09T23:45:21;101521.53;;;15.68;57.46
27980;BME280;15315;50.836;4.430;2023-04-09T23:55:22;101498.72;;;15.92;57.04
